LiveATC.Net - Listen to live air traffic control over the Internet!


ICAO: YMHB  IATA: HBA   Airport: Hobart International Airport
City: Cambridge   State/Province: Tasmania
Country: Australia   Continent: Oceania
YMHB METAR Weather: YMHB 281800Z AUTO 28006KT 9999 // NCD 07/03 Q1003 RF00.0/000.4
YMHB ADS-B Flight Tracking (ADSBExchange)
YMHB Flight Activity (FlightAware)

YMHB Twr/Centre/Misc
Feed Status: UP   Listeners: 0
Listen in your browser - HTML5 player (in browser, HTML5)
Click here to listen with your own player (launches your MP3 player)
Archive Access: YMHB Twr/Centre/Misc
FacilityFrequency
Air to Air123.450
Area CTAF126.700
Helicopter Resources Company126.400
Hobart Approach125.550
Hobart Tower118.100
Jetstar Company130.925
Launceston Approach123.800
Launceston Tower118.700
Melbourne Centre126.500
Qantas Company129.500
Rotor Lift Company131.600
Virgin Company130.350

NOTICE

Unauthorized use prohibited. See LiveATC.net Terms of Service


Airport/ARTCC Code
Frequency Search
(e.g., 124.400, 128.75)
Site-wide search
 


Browse Feeds
Top 50 Feeds
HF Oceanic Feeds
Coverage Map
Bad Weather Areas

LiveATC FAQ
Offer LiveATC feed
Contact LiveATC.net
Press Inquiries

LiveATC on iPhone
LiveATC on Android

LiveATC Mobile
(Mobile browser)

ATC Audio Archives
Interesting Recordings

LiveATC Forums


Home Page
About LiveATC.net


Terms of Use
Privacy Policy

AIRMETs/SIGMETs

FAA Airport Status
NAS Status
Arrival Demand


Server Software By:
Icecast.org
Liquidsoap